Time;durP1;ratioP1;P1;durP2;ratioP2;P2;SDS_P1;SDS_P2;PMS_P1;PMS_P2;Temp;Humidity;BMP_temperature;BMP_pressure;BME280_temperature;BME280_humidity;BME280_pressure;Samples;Min_cycle;Max_cycle;Signal;HPM_P1;HPM_P2
2021/09/27 00:00:31;;;;;;;77.93;46.80;;;;;;;;;;5098875;28;20455;-57
2021/09/27 00:02:58;;;;;;;113.20;64.43;;;;;;;;;;5097777;28;20490;-55
2021/09/27 00:05:27;;;;;;;102.93;58.70;;;;;;;;;;5098254;28;20456;-55
2021/09/27 00:07:56;;;;;;;93.57;55.77;;;;;;;;;;5098211;28;20693;-56
2021/09/27 00:10:25;;;;;;;48.10;29.90;;;;;;;;;;5097959;28;20432;-57
2021/09/27 00:13:11;;;;;;;100.03;62.40;;;;;;;;;;5098084;28;20470;-54
2021/09/27 00:15:39;;;;;;;150.23;90.33;;;;;;;;;;5097837;28;20452;-60
2021/09/27 00:18:07;;;;;;;157.60;89.33;;;;;;;;;;5097829;28;20452;-54
2021/09/27 00:23:39;;;;;;;111.77;65.30;;;;;;;;;;5076104;28;20459;-59
2021/09/27 00:26:07;;;;;;;79.20;51.57;;;;;;;;;;5078393;28;20453;-55
2021/09/27 00:28:34;;;;;;;36.00;21.67;;;;;;;;;;5078047;28;20499;-62
2021/09/27 00:31:02;;;;;;;108.57;66.33;;;;;;;;;;5077420;28;20460;-58
2021/09/27 00:33:29;;;;;;;113.80;65.30;;;;;;;;;;5076888;28;20440;-55
2021/09/27 00:35:57;;;;;;;79.10;54.17;;;;;;;;;;5077905;28;20520;-61
2021/09/27 00:38:50;;;;;;;37.93;28.83;;;;;;;;;;5077699;28;20454;-55
2021/09/27 00:41:20;;;;;;;19.53;15.00;;;;;;;;;;5077650;28;20487;-57
2021/09/27 00:43:48;;;;;;;17.13;13.90;;;;;;;;;;5077491;28;20451;-51
2021/09/27 00:46:26;;;;;;;15.03;13.07;;;;;;;;;;5077013;28;20577;-57
2021/09/27 00:48:54;;;;;;;16.37;11.93;;;;;;;;;;5075266;28;20654;-51
2021/09/27 00:51:24;;;;;;;15.20;11.67;;;;;;;;;;5077460;28;20457;-58
2021/09/27 00:54:09;;;;;;;12.80;11.23;;;;;;;;;;5077341;28;20526;-56
2021/09/27 00:56:40;;;;;;;16.60;12.80;;;;;;;;;;5077615;28;20456;-57
2021/09/27 00:59:07;;;;;;;30.30;21.83;;;;;;;;;;5077332;28;20468;-54
2021/09/27 01:01:37;;;;;;;15.83;14.17;;;;;;;;;;5077383;28;20464;-58
2021/09/27 01:04:05;;;;;;;13.73;11.40;;;;;;;;;;5077475;28;20503;-58
2021/09/27 01:06:41;;;;;;;20.10;13.80;;;;;;;;;;5077112;28;20456;-49
2021/09/27 01:09:13;;;;;;;16.40;11.40;;;;;;;;;;5060443;28;20492;-59
2021/09/27 01:12:03;;;;;;;14.73;11.70;;;;;;;;;;5078151;28;20460;-59
2021/09/27 01:14:44;;;;;;;13.73;10.80;;;;;;;;;;5078303;28;20427;-61
2021/09/27 01:17:15;;;;;;;15.70;12.23;;;;;;;;;;5078470;28;20476;-59
2021/09/27 01:20:14;;;;;;;16.70;11.77;;;;;;;;;;5077875;28;20429;-59
2021/09/27 01:22:53;;;;;;;13.67;11.30;;;;;;;;;;5016926;28;20455;-56
2021/09/27 01:28:45;;;;;;;12.83;10.50;;;;;;;;;;5057337;28;20476;-54
2021/09/27 01:34:24;;;;;;;13.20;10.60;;;;;;;;;;5034069;28;20435;-60
2021/09/27 01:36:56;;;;;;;13.73;9.77;;;;;;;;;;5066145;28;20449;-59
2021/09/27 01:39:27;;;;;;;18.40;10.93;;;;;;;;;;5077594;28;20650;-59
2021/09/27 01:41:59;;;;;;;15.97;11.73;;;;;;;;;;5077479;28;20452;-52
2021/09/27 01:44:31;;;;;;;14.20;10.50;;;;;;;;;;5077357;28;20430;-58
2021/09/27 01:47:07;;;;;;;13.67;10.60;;;;;;;;;;5077058;28;20437;-59
2021/09/27 01:49:41;;;;;;;12.67;11.00;;;;;;;;;;5061166;28;20503;-61
2021/09/27 01:52:10;;;;;;;14.37;12.67;;;;;;;;;;5077379;28;20445;-53
2021/09/27 01:54:58;;;;;;;12.70;10.70;;;;;;;;;;5077350;28;20456;-54
2021/09/27 01:57:29;;;;;;;18.20;11.50;;;;;;;;;;5077036;28;20445;-59
2021/09/27 02:00:01;;;;;;;11.90;10.27;;;;;;;;;;5076444;28;20469;-53
2021/09/27 02:02:39;;;;;;;11.40;10.20;;;;;;;;;;5067210;28;20449;-55
2021/09/27 02:05:11;;;;;;;14.03;10.53;;;;;;;;;;5076481;28;20453;-55
2021/09/27 02:07:41;;;;;;;11.83;10.53;;;;;;;;;;5076972;28;20440;-57
2021/09/27 02:10:12;;;;;;;14.53;11.20;;;;;;;;;;5076287;28;20492;-57
2021/09/27 02:12:43;;;;;;;14.13;11.20;;;;;;;;;;5076382;28;20472;-59
2021/09/27 02:15:16;;;;;;;15.00;12.50;;;;;;;;;;5075937;28;20457;-57
2021/09/27 02:17:51;;;;;;;16.00;11.37;;;;;;;;;;5074174;28;20485;-58
2021/09/27 02:20:23;;;;;;;12.47;10.87;;;;;;;;;;5075984;28;20511;-55
2021/09/27 02:22:55;;;;;;;14.00;11.17;;;;;;;;;;5076066;28;20465;-56
2021/09/27 02:25:26;;;;;;;14.23;10.90;;;;;;;;;;5075202;28;20523;-60
2021/09/27 02:27:54;;;;;;;14.20;11.70;;;;;;;;;;5076610;28;20449;-56
2021/09/27 02:30:26;;;;;;;13.93;12.23;;;;;;;;;;5076699;28;20493;-60
2021/09/27 02:32:57;;;;;;;14.17;12.50;;;;;;;;;;5077234;28;20500;-58
2021/09/27 02:35:28;;;;;;;15.23;10.93;;;;;;;;;;5075559;28;20579;-58
2021/09/27 02:38:08;;;;;;;14.90;11.07;;;;;;;;;;5075994;28;20483;-55
2021/09/27 02:40:41;;;;;;;13.17;11.23;;;;;;;;;;5075535;28;20470;-59
2021/09/27 02:43:11;;;;;;;15.23;11.23;;;;;;;;;;5076526;28;20437;-59
2021/09/27 02:45:39;;;;;;;12.60;10.73;;;;;;;;;;5069579;28;20488;-60
2021/09/27 02:48:12;;;;;;;15.57;12.27;;;;;;;;;;5075874;28;20465;-61
2021/09/27 02:50:44;;;;;;;11.77;10.57;;;;;;;;;;5075815;28;20453;-58
2021/09/27 02:53:12;;;;;;;17.20;11.10;;;;;;;;;;5075842;28;20475;-58
2021/09/27 02:56:00;;;;;;;13.33;10.87;;;;;;;;;;5075614;28;20447;-59
2021/09/27 02:58:30;;;;;;;13.23;10.80;;;;;;;;;;5076408;28;20460;-57
2021/09/27 03:01:02;;;;;;;15.97;11.50;;;;;;;;;;5076047;28;20499;-58
2021/09/27 03:03:55;;;;;;;13.03;10.40;;;;;;;;;;5076103;28;20461;-57
2021/09/27 03:06:31;;;;;;;16.30;10.33;;;;;;;;;;5074537;28;20485;-54
2021/09/27 03:09:05;;;;;;;13.40;11.07;;;;;;;;;;5076179;28;20911;-60
2021/09/27 03:11:49;;;;;;;11.00;9.80;;;;;;;;;;5076004;28;20461;-57
2021/09/27 03:15:01;;;;;;;12.20;10.90;;;;;;;;;;5076943;28;20453;-59
2021/09/27 03:17:52;;;;;;;16.73;11.80;;;;;;;;;;5076915;28;20471;-58
2021/09/27 03:23:10;;;;;;;15.90;10.70;;;;;;;;;;5071674;28;20562;-57
2021/09/27 03:28:40;;;;;;;13.00;11.30;;;;;;;;;;5040241;28;20466;-54
2021/09/27 03:31:31;;;;;;;12.60;11.10;;;;;;;;;;5072189;28;20460;-60
2021/09/27 03:34:09;;;;;;;14.57;10.90;;;;;;;;;;5074899;28;20473;-59
2021/09/27 03:36:57;;;;;;;13.23;10.03;;;;;;;;;;5076007;28;20461;-55
2021/09/27 03:42:46;;;;;;;11.50;9.87;;;;;;;;;;5056058;28;20446;-54
2021/09/27 03:45:18;;;;;;;13.23;10.17;;;;;;;;;;5070166;28;20457;-60
2021/09/27 03:50:53;;;;;;;11.60;10.40;;;;;;;;;;5071603;28;20464;-57
2021/09/27 03:53:25;;;;;;;14.37;10.70;;;;;;;;;;5075374;28;20652;-58
2021/09/27 03:56:10;;;;;;;11.70;9.93;;;;;;;;;;5075686;28;20469;-61
2021/09/27 03:58:43;;;;;;;15.87;10.50;;;;;;;;;;5074664;28;20453;-58
2021/09/27 04:01:14;;;;;;;15.67;10.03;;;;;;;;;;5074108;28;20459;-57
2021/09/27 04:04:02;;;;;;;11.30;10.00;;;;;;;;;;5074798;28;20433;-59
2021/09/27 04:06:44;;;;;;;21.00;11.97;;;;;;;;;;5054431;28;20489;-55
2021/09/27 04:09:20;;;;;;;11.60;9.83;;;;;;;;;;5075682;28;20485;-59
2021/09/27 04:11:49;;;;;;;11.80;9.77;;;;;;;;;;5078491;28;20494;-57
2021/09/27 04:14:24;;;;;;;12.90;10.47;;;;;;;;;;5078325;28;20483;-57
2021/09/27 04:17:01;;;;;;;12.30;9.93;;;;;;;;;;5078811;28;20448;-58
2021/09/27 04:19:31;;;;;;;13.30;10.00;;;;;;;;;;5060822;28;20461;-57
2021/09/27 04:22:01;;;;;;;11.40;9.90;;;;;;;;;;5078028;28;20449;-58
2021/09/27 04:24:38;;;;;;;12.80;9.77;;;;;;;;;;5078529;28;20456;-57
2021/09/27 04:27:18;;;;;;;11.80;9.47;;;;;;;;;;5073181;28;20572;-57
2021/09/27 04:30:05;;;;;;;12.80;11.03;;;;;;;;;;5059578;28;20481;-56
2021/09/27 04:32:57;;;;;;;15.03;10.33;;;;;;;;;;5064188;28;20453;-56
2021/09/27 04:35:28;;;;;;;12.23;9.93;;;;;;;;;;5077575;28;20517;-51
2021/09/27 04:37:57;;;;;;;18.67;10.47;;;;;;;;;;5077826;28;20528;-57
2021/09/27 04:40:33;;;;;;;10.50;8.57;;;;;;;;;;5077427;28;20445;-52
2021/09/27 04:43:13;;;;;;;14.47;10.07;;;;;;;;;;5058103;28;20516;-53
2021/09/27 04:48:57;;;;;;;14.73;9.77;;;;;;;;;;5060176;28;20471;-56
2021/09/27 04:51:34;;;;;;;14.03;9.90;;;;;;;;;;5077609;28;20444;-54
2021/09/27 04:54:17;;;;;;;13.60;9.37;;;;;;;;;;5070445;28;20453;-56
2021/09/27 04:56:48;;;;;;;12.47;10.47;;;;;;;;;;5078602;28;20441;-57
2021/09/27 04:59:21;;;;;;;12.80;8.90;;;;;;;;;;5077667;28;20453;-62
2021/09/27 05:02:22;;;;;;;19.47;10.40;;;;;;;;;;5077829;28;20469;-55
2021/09/27 05:04:52;;;;;;;11.37;9.70;;;;;;;;;;5078182;28;20518;-58
2021/09/27 05:07:51;;;;;;;14.07;10.47;;;;;;;;;;5078560;28;20508;-55
2021/09/27 05:10:35;;;;;;;14.60;9.90;;;;;;;;;;4998260;28;20464;-58
2021/09/27 05:13:21;;;;;;;16.17;9.50;;;;;;;;;;5050387;28;20473;-53
2021/09/27 05:15:55;;;;;;;14.27;9.83;;;;;;;;;;5057052;28;20468;-54
2021/09/27 05:18:38;;;;;;;12.43;9.90;;;;;;;;;;5075562;28;20451;-58
2021/09/27 05:21:27;;;;;;;14.63;11.17;;;;;;;;;;5073995;28;20430;-56
2021/09/27 05:24:08;;;;;;;13.07;10.53;;;;;;;;;;5073172;28;20461;-58
2021/09/27 05:26:58;;;;;;;12.13;9.27;;;;;;;;;;5060384;28;20452;-56
2021/09/27 05:29:38;;;;;;;11.50;9.63;;;;;;;;;;5076570;28;20469;-57
2021/09/27 05:32:45;;;;;;;26.00;11.13;;;;;;;;;;5077264;28;20815;-56
2021/09/27 05:35:40;;;;;;;13.73;11.10;;;;;;;;;;5076997;28;20522;-59
2021/09/27 05:38:20;;;;;;;15.00;10.50;;;;;;;;;;5075729;28;20457;-56
2021/09/27 05:47:32;;;;;;;14.07;11.50;;;;;;;;;;5059037;28;20468;-57
2021/09/27 05:50:16;;;;;;;15.27;10.40;;;;;;;;;;5064048;28;20477;-55
2021/09/27 05:52:47;;;;;;;14.27;12.53;;;;;;;;;;5077596;28;20433;-60
2021/09/27 05:55:41;;;;;;;16.30;11.10;;;;;;;;;;5073221;28;20516;-59
2021/09/27 05:58:12;;;;;;;12.63;10.10;;;;;;;;;;5075585;28;20457;-60
2021/09/27 06:00:53;;;;;;;19.07;12.30;;;;;;;;;;5076515;28;20477;-61
2021/09/27 06:03:32;;;;;;;12.73;10.43;;;;;;;;;;5076035;28;20430;-54
2021/09/27 06:08:52;;;;;;;12.13;10.20;;;;;;;;;;5057988;28;20517;-56
2021/09/27 06:11:23;;;;;;;14.33;9.00;;;;;;;;;;5055745;28;20478;-56
2021/09/27 06:14:06;;;;;;;14.70;10.27;;;;;;;;;;5055872;28;20414;-52
2021/09/27 06:16:53;;;;;;;16.83;10.87;;;;;;;;;;5057087;28;20442;-58
2021/09/27 06:19:48;;;;;;;17.87;10.93;;;;;;;;;;5061812;28;20452;-55
2021/09/27 06:22:27;;;;;;;15.00;10.00;;;;;;;;;;5055332;28;20461;-59
2021/09/27 06:25:00;;;;;;;13.30;10.40;;;;;;;;;;5055041;28;20489;-58
2021/09/27 06:27:35;;;;;;;12.30;9.30;;;;;;;;;;5054734;28;20458;-61
2021/09/27 06:30:07;;;;;;;12.07;9.57;;;;;;;;;;5055455;28;20488;-61
2021/09/27 06:32:54;;;;;;;13.17;9.50;;;;;;;;;;5074647;28;20476;-55
2021/09/27 06:35:25;;;;;;;15.23;9.70;;;;;;;;;;5073134;28;20636;-61
2021/09/27 06:37:55;;;;;;;10.30;8.90;;;;;;;;;;5075122;28;20472;-58
2021/09/27 06:40:24;;;;;;;11.63;9.40;;;;;;;;;;5075199;28;20558;-60
2021/09/27 06:42:51;;;;;;;10.40;8.57;;;;;;;;;;5075054;28;20456;-60
2021/09/27 06:45:20;;;;;;;10.20;8.40;;;;;;;;;;5074839;28;20441;-60
2021/09/27 06:50:53;;;;;;;11.17;9.57;;;;;;;;;;5074101;28;20471;-56
2021/09/27 06:53:28;;;;;;;11.53;7.77;;;;;;;;;;5074268;28;20868;-61
2021/09/27 06:55:56;;;;;;;12.90;9.43;;;;;;;;;;5073717;28;20445;-60
2021/09/27 06:58:24;;;;;;;11.03;9.13;;;;;;;;;;5074059;28;20487;-58
2021/09/27 07:00:53;;;;;;;15.77;10.47;;;;;;;;;;5074117;28;20449;-59
2021/09/27 07:03:20;;;;;;;11.53;8.17;;;;;;;;;;5072868;28;20460;-56
2021/09/27 07:05:47;;;;;;;9.60;8.50;;;;;;;;;;5073756;28;20511;-58
2021/09/27 07:08:20;;;;;;;11.17;8.30;;;;;;;;;;5074573;28;20457;-56
2021/09/27 07:11:22;;;;;;;12.50;9.63;;;;;;;;;;5074334;28;20464;-56
2021/09/27 07:13:49;;;;;;;12.10;8.33;;;;;;;;;;5073891;28;20784;-58
2021/09/27 07:16:17;;;;;;;15.00;8.97;;;;;;;;;;5073683;28;20457;-59
2021/09/27 07:18:51;;;;;;;10.10;8.60;;;;;;;;;;5074822;28;20445;-54
2021/09/27 07:21:20;;;;;;;11.10;9.27;;;;;;;;;;5074208;28;20516;-59
2021/09/27 07:23:49;;;;;;;11.80;9.50;;;;;;;;;;5073930;28;20437;-58
2021/09/27 07:26:43;;;;;;;10.30;8.47;;;;;;;;;;5074361;28;20480;-61
2021/09/27 07:29:10;;;;;;;10.77;7.97;;;;;;;;;;5072083;28;20513;-61
2021/09/27 07:31:46;;;;;;;11.40;8.53;;;;;;;;;;5074503;28;20483;-57
2021/09/27 07:34:23;;;;;;;10.13;9.03;;;;;;;;;;5059439;28;20484;-56
2021/09/27 07:36:50;;;;;;;12.50;8.67;;;;;;;;;;5064939;28;20782;-62
2021/09/27 07:39:19;;;;;;;9.13;8.13;;;;;;;;;;5074261;28;20461;-56
2021/09/27 07:41:48;;;;;;;11.40;7.70;;;;;;;;;;5074931;28;20495;-58
2021/09/27 07:44:17;;;;;;;10.90;7.93;;;;;;;;;;5074569;28;20479;-61
2021/09/27 07:46:45;;;;;;;13.43;8.20;;;;;;;;;;5077340;28;20532;-59
2021/09/27 07:49:13;;;;;;;9.43;7.80;;;;;;;;;;5077468;28;20457;-58
2021/09/27 07:51:51;;;;;;;8.57;7.10;;;;;;;;;;5077688;28;20504;-57
2021/09/27 07:54:30;;;;;;;8.90;7.10;;;;;;;;;;5077009;28;20456;-60
2021/09/27 07:56:57;;;;;;;8.23;6.47;;;;;;;;;;5074936;28;20522;-63
2021/09/27 07:59:25;;;;;;;10.20;7.73;;;;;;;;;;5076008;28;20478;-62
2021/09/27 08:01:53;;;;;;;8.43;6.77;;;;;;;;;;5076501;28;20487;-59
2021/09/27 08:04:22;;;;;;;10.80;7.90;;;;;;;;;;5073268;28;20450;-59
2021/09/27 08:06:54;;;;;;;8.87;6.60;;;;;;;;;;5057361;28;20430;-60
2021/09/27 08:09:21;;;;;;;10.00;6.77;;;;;;;;;;5056611;28;20496;-56
2021/09/27 08:11:50;;;;;;;9.00;7.23;;;;;;;;;;5056088;28;20544;-61
2021/09/27 08:14:35;;;;;;;10.40;7.27;;;;;;;;;;5056214;28;20465;-61
2021/09/27 08:17:03;;;;;;;8.70;6.30;;;;;;;;;;5068066;28;20750;-55
2021/09/27 08:19:31;;;;;;;7.83;5.87;;;;;;;;;;5056229;28;20461;-57
2021/09/27 08:22:07;;;;;;;10.03;7.17;;;;;;;;;;5068608;28;20460;-61
2021/09/27 08:24:39;;;;;;;9.43;6.00;;;;;;;;;;5065051;28;20429;-55
2021/09/27 08:27:07;;;;;;;9.93;5.73;;;;;;;;;;5055346;28;20458;-58
2021/09/27 08:29:36;;;;;;;8.43;5.83;;;;;;;;;;5055367;28;20452;-62
2021/09/27 08:32:03;;;;;;;7.70;6.07;;;;;;;;;;5055642;28;20545;-56
2021/09/27 08:34:33;;;;;;;6.40;5.40;;;;;;;;;;5059592;28;20457;-61
2021/09/27 08:37:00;;;;;;;11.60;6.70;;;;;;;;;;5074676;28;20441;-58
2021/09/27 08:39:35;;;;;;;7.30;4.87;;;;;;;;;;5075909;28;20479;-58
2021/09/27 08:42:09;;;;;;;7.70;5.90;;;;;;;;;;5075258;28;20479;-60
2021/09/27 08:44:48;;;;;;;6.53;4.60;;;;;;;;;;5074610;28;20521;-57
2021/09/27 08:47:28;;;;;;;9.20;5.70;;;;;;;;;;5076150;28;20452;-57
2021/09/27 08:49:58;;;;;;;7.30;4.90;;;;;;;;;;5074603;28;20444;-61
2021/09/27 08:52:27;;;;;;;7.60;4.63;;;;;;;;;;5056412;28;20465;-60
2021/09/27 08:54:55;;;;;;;5.53;4.93;;;;;;;;;;5054195;28;20717;-58
2021/09/27 08:57:35;;;;;;;6.30;4.90;;;;;;;;;;5054312;28;20494;-57
2021/09/27 09:00:09;;;;;;;7.40;4.60;;;;;;;;;;5055157;28;20507;-61
2021/09/27 09:02:44;;;;;;;7.70;4.77;;;;;;;;;;5055508;28;20453;-57
2021/09/27 09:05:25;;;;;;;7.30;5.90;;;;;;;;;;5055044;28;20472;-60
2021/09/27 09:07:59;;;;;;;6.40;4.30;;;;;;;;;;5067850;28;20465;-60
2021/09/27 09:10:47;;;;;;;12.50;4.40;;;;;;;;;;5061238;28;20474;-59
2021/09/27 09:13:22;;;;;;;10.90;5.77;;;;;;;;;;5065867;28;20449;-59
2021/09/27 09:15:51;;;;;;;8.57;5.57;;;;;;;;;;5076584;28;20496;-54
2021/09/27 09:18:33;;;;;;;6.17;5.30;;;;;;;;;;5077373;28;20437;-56
2021/09/27 09:21:10;;;;;;;6.33;4.97;;;;;;;;;;5077203;28;20433;-59
2021/09/27 09:23:42;;;;;;;7.00;5.23;;;;;;;;;;5076321;28;20456;-59
2021/09/27 09:26:12;;;;;;;5.97;4.10;;;;;;;;;;5075958;28;20448;-59
2021/09/27 09:28:53;;;;;;;8.00;4.57;;;;;;;;;;5075311;28;20457;-58
2021/09/27 09:31:21;;;;;;;14.30;7.10;;;;;;;;;;5075376;28;20603;-61
2021/09/27 09:33:50;;;;;;;5.83;4.67;;;;;;;;;;5074789;28;20449;-60
2021/09/27 09:36:21;;;;;;;11.33;7.13;;;;;;;;;;5074715;28;20479;-61
2021/09/27 09:38:49;;;;;;;7.70;5.37;;;;;;;;;;5074312;28;20461;-56
2021/09/27 09:41:18;;;;;;;7.43;4.70;;;;;;;;;;5073966;28;20479;-60
2021/09/27 09:43:48;;;;;;;5.90;3.90;;;;;;;;;;5074226;28;20519;-52
2021/09/27 09:46:18;;;;;;;5.57;4.57;;;;;;;;;;5073628;28;20518;-59
2021/09/27 09:49:02;;;;;;;7.90;4.63;;;;;;;;;;5074072;28;20482;-61
2021/09/27 09:51:35;;;;;;;8.50;7.37;;;;;;;;;;5073786;28;20469;-59
2021/09/27 09:54:28;;;;;;;9.63;4.43;;;;;;;;;;5073478;28;20437;-60
2021/09/27 09:57:03;;;;;;;7.13;5.13;;;;;;;;;;5071422;28;20488;-57
2021/09/27 09:59:32;;;;;;;9.53;4.43;;;;;;;;;;5054369;28;20461;-59
2021/09/27 10:02:02;;;;;;;7.73;4.50;;;;;;;;;;5059805;28;20720;-59
2021/09/27 10:04:31;;;;;;;6.20;3.80;;;;;;;;;;5054331;28;20538;-58
2021/09/27 10:07:19;;;;;;;7.10;4.10;;;;;;;;;;5054974;28;20469;-55
2021/09/27 10:10:06;;;;;;;8.17;4.87;;;;;;;;;;5053637;28;20509;-56
2021/09/27 10:12:43;;;;;;;6.90;4.13;;;;;;;;;;5054030;28;20488;-57
2021/09/27 10:15:15;;;;;;;7.07;4.93;;;;;;;;;;5054260;28;20465;-54
2021/09/27 10:17:46;;;;;;;6.27;4.80;;;;;;;;;;5050210;28;20469;-54
2021/09/27 10:20:22;;;;;;;9.77;5.17;;;;;;;;;;5054058;28;20419;-60
2021/09/27 10:22:53;;;;;;;8.67;4.20;;;;;;;;;;5052650;28;20553;-51
2021/09/27 10:25:53;;;;;;;7.43;4.80;;;;;;;;;;5053236;28;20465;-57
2021/09/27 10:28:30;;;;;;;7.93;5.20;;;;;;;;;;5043658;28;20454;-59
2021/09/27 10:30:59;;;;;;;6.57;5.00;;;;;;;;;;5045173;28;20488;-56
2021/09/27 10:33:29;;;;;;;9.07;6.30;;;;;;;;;;5043106;28;20486;-60
2021/09/27 10:39:02;;;;;;;8.07;4.77;;;;;;;;;;5027552;28;20542;-58
2021/09/27 10:41:48;;;;;;;13.47;10.00;;;;;;;;;;5033469;28;20462;-59
2021/09/27 10:44:18;;;;;;;6.67;4.50;;;;;;;;;;5033150;28;20434;-58
2021/09/27 10:46:52;;;;;;;6.20;3.10;;;;;;;;;;5044224;28;20439;-56
2021/09/27 10:49:30;;;;;;;7.43;2.53;;;;;;;;;;5038777;28;20458;-60
2021/09/27 10:52:10;;;;;;;4.30;2.03;;;;;;;;;;5034425;28;20477;-57
2021/09/27 10:54:47;;;;;;;3.93;2.37;;;;;;;;;;5033900;28;20520;-59
2021/09/27 10:57:17;;;;;;;3.03;2.07;;;;;;;;;;5042367;28;20534;-61
2021/09/27 10:59:52;;;;;;;4.17;2.53;;;;;;;;;;5043177;28;20446;-60
2021/09/27 11:02:38;;;;;;;3.77;2.67;;;;;;;;;;5045712;28;20561;-61
2021/09/27 11:05:14;;;;;;;5.67;2.30;;;;;;;;;;5048794;28;20481;-58
2021/09/27 11:07:48;;;;;;;4.80;2.27;;;;;;;;;;5050124;28;20531;-55
2021/09/27 11:13:04;;;;;;;8.13;4.10;;;;;;;;;;5049030;28;20504;-60
2021/09/27 11:15:35;;;;;;;5.20;3.30;;;;;;;;;;5050229;28;20524;-60
2021/09/27 11:18:26;;;;;;;8.47;4.47;;;;;;;;;;5050529;28;20486;-60
2021/09/27 11:21:04;;;;;;;4.60;2.83;;;;;;;;;;5039271;28;20452;-60
2021/09/27 11:24:05;;;;;;;5.30;3.23;;;;;;;;;;5058823;28;20452;-60
2021/09/27 11:26:37;;;;;;;4.30;2.97;;;;;;;;;;5048709;28;20458;-61
2021/09/27 11:32:25;;;;;;;4.20;2.20;;;;;;;;;;5030630;28;20494;-55
2021/09/27 11:35:21;;;;;;;8.20;2.30;;;;;;;;;;5048669;28;20469;-61
2021/09/27 11:38:05;;;;;;;8.67;3.43;;;;;;;;;;5042320;28;20438;-59
2021/09/27 11:40:35;;;;;;;5.10;3.67;;;;;;;;;;5042747;28;20514;-56
2021/09/27 11:43:13;;;;;;;11.17;5.77;;;;;;;;;;5041653;28;20458;-51
2021/09/27 11:45:47;;;;;;;5.50;4.27;;;;;;;;;;5045778;28;20481;-59
2021/09/27 11:48:33;;;;;;;3.10;2.20;;;;;;;;;;5031324;28;20453;-57
2021/09/27 11:51:23;;;;;;;5.70;2.97;;;;;;;;;;5047399;28;20429;-55
2021/09/27 11:54:02;;;;;;;6.60;2.77;;;;;;;;;;5026803;28;20459;-58
2021/09/27 11:56:54;;;;;;;4.17;2.40;;;;;;;;;;5041176;28;20466;-58
2021/09/27 11:59:39;;;;;;;4.00;2.50;;;;;;;;;;5055173;28;20454;-57
2021/09/27 12:02:46;;;;;;;5.77;3.73;;;;;;;;;;5053516;28;20446;-58
2021/09/27 12:08:47;;;;;;;6.43;3.53;;;;;;;;;;5057039;28;20476;-60
2021/09/27 12:11:17;;;;;;;5.50;2.73;;;;;;;;;;5053832;28;20470;-60
2021/09/27 12:14:03;;;;;;;5.30;3.13;;;;;;;;;;5053682;28;20438;-51
2021/09/27 12:16:32;;;;;;;4.80;3.37;;;;;;;;;;5049656;28;20537;-58
2021/09/27 12:19:02;;;;;;;6.87;3.20;;;;;;;;;;5050217;28;20443;-57
2021/09/27 12:21:31;;;;;;;3.67;2.10;;;;;;;;;;5042877;28;20457;-61
2021/09/27 12:24:14;;;;;;;4.63;2.80;;;;;;;;;;5053557;28;20465;-60
2021/09/27 12:27:14;;;;;;;6.27;3.00;;;;;;;;;;5069335;28;20519;-58
2021/09/27 12:29:51;;;;;;;3.80;2.87;;;;;;;;;;5074149;28;20506;-60
2021/09/27 12:32:34;;;;;;;6.07;3.57;;;;;;;;;;5062830;28;20478;-57
2021/09/27 12:35:09;;;;;;;5.43;2.97;;;;;;;;;;5056838;28;20485;-58
2021/09/27 12:37:42;;;;;;;4.90;2.50;;;;;;;;;;5073681;28;20464;-57
2021/09/27 12:40:11;;;;;;;4.43;2.73;;;;;;;;;;5036217;28;20538;-61
2021/09/27 12:42:43;;;;;;;4.53;3.00;;;;;;;;;;5063885;28;20473;-57
2021/09/27 12:45:20;;;;;;;6.80;3.20;;;;;;;;;;5057064;28;20434;-58
2021/09/27 12:47:54;;;;;;;8.87;3.40;;;;;;;;;;5056244;28;20676;-55
2021/09/27 12:50:23;;;;;;;6.87;4.60;;;;;;;;;;5056680;28;20457;-59
2021/09/27 12:52:53;;;;;;;4.10;2.43;;;;;;;;;;5055685;28;20540;-59
2021/09/27 12:55:23;;;;;;;4.73;2.97;;;;;;;;;;5056015;28;20477;-57
2021/09/27 12:57:55;;;;;;;4.60;2.67;;;;;;;;;;5055731;28;20465;-58
2021/09/27 13:00:30;;;;;;;7.90;2.97;;;;;;;;;;5056430;28;20430;-59
2021/09/27 13:03:17;;;;;;;4.30;2.80;;;;;;;;;;5055077;28;20457;-58
2021/09/27 13:05:56;;;;;;;7.37;2.40;;;;;;;;;;5047661;28;20464;-59
2021/09/27 13:08:26;;;;;;;4.67;2.43;;;;;;;;;;5053848;28;20541;-60
2021/09/27 13:11:13;;;;;;;8.70;3.43;;;;;;;;;;5052377;28;20475;-60
2021/09/27 13:13:42;;;;;;;7.60;3.60;;;;;;;;;;5055279;28;20450;-59
2021/09/27 13:16:16;;;;;;;5.50;3.03;;;;;;;;;;5048926;28;20504;-58
2021/09/27 13:19:22;;;;;;;5.23;2.90;;;;;;;;;;5050753;28;20510;-61
2021/09/27 13:21:50;;;;;;;3.60;1.90;;;;;;;;;;5059837;28;20493;-60
2021/09/27 13:24:21;;;;;;;5.80;3.60;;;;;;;;;;5064030;28;20457;-60
2021/09/27 13:26:59;;;;;;;4.13;2.60;;;;;;;;;;5057897;28;20500;-55
2021/09/27 13:29:32;;;;;;;5.70;3.40;;;;;;;;;;5054711;28;20458;-60
2021/09/27 13:32:31;;;;;;;9.80;4.80;;;;;;;;;;5055844;28;20492;-61
2021/09/27 13:35:06;;;;;;;11.40;2.67;;;;;;;;;;5054288;28;20549;-61
2021/09/27 13:37:37;;;;;;;4.77;3.87;;;;;;;;;;5055963;28;20445;-57
2021/09/27 13:40:19;;;;;;;4.17;3.10;;;;;;;;;;5048426;28;20447;-60
2021/09/27 13:42:48;;;;;;;4.30;2.80;;;;;;;;;;5054359;28;20432;-62
2021/09/27 13:45:31;;;;;;;7.53;3.10;;;;;;;;;;5054088;28;20450;-57
2021/09/27 13:47:59;;;;;;;5.00;3.10;;;;;;;;;;5055175;28;20469;-57
2021/09/27 13:50:28;;;;;;;6.57;3.80;;;;;;;;;;5045950;28;20460;-57
2021/09/27 13:53:04;;;;;;;5.07;2.53;;;;;;;;;;5044181;28;20486;-59
2021/09/27 13:55:33;;;;;;;4.83;2.63;;;;;;;;;;5034738;28;20458;-57
2021/09/27 13:58:02;;;;;;;5.07;2.80;;;;;;;;;;5036288;28;20419;-56
2021/09/27 14:00:33;;;;;;;5.33;3.00;;;;;;;;;;5049376;28;20545;-54
2021/09/27 14:03:00;;;;;;;7.70;4.63;;;;;;;;;;5063767;28;20466;-60
2021/09/27 14:05:44;;;;;;;12.20;10.70;;;;;;;;;;5054161;28;20457;-58
2021/09/27 14:08:16;;;;;;;7.30;3.77;;;;;;;;;;5055549;28;20488;-65
2021/09/27 14:10:59;;;;;;;8.03;3.87;;;;;;;;;;5054150;28;20454;-58
2021/09/27 14:13:29;;;;;;;5.90;3.70;;;;;;;;;;5054482;28;20489;-61
2021/09/27 14:15:59;;;;;;;4.27;2.77;;;;;;;;;;5059645;28;20434;-59
2021/09/27 14:18:46;;;;;;;5.30;3.70;;;;;;;;;;5047237;28;20501;-62
2021/09/27 14:21:24;;;;;;;8.50;6.50;;;;;;;;;;5047363;28;20529;-60
2021/09/27 14:23:55;;;;;;;5.40;3.50;;;;;;;;;;5049653;28;20446;-61
2021/09/27 14:26:28;;;;;;;52.03;42.30;;;;;;;;;;5041651;28;20471;-60
2021/09/27 14:31:51;;;;;;;26.57;21.67;;;;;;;;;;5039116;28;20446;-59
2021/09/27 14:34:18;;;;;;;14.70;6.77;;;;;;;;;;5054505;28;20450;-61
2021/09/27 14:37:19;;;;;;;17.03;10.70;;;;;;;;;;5055604;28;20456;-56
2021/09/27 14:39:55;;;;;;;7.70;4.97;;;;;;;;;;5040287;28;20458;-59
2021/09/27 14:42:22;;;;;;;11.53;5.40;;;;;;;;;;5054078;28;20482;-59
2021/09/27 14:45:05;;;;;;;10.33;4.73;;;;;;;;;;5044390;28;20455;-55
2021/09/27 14:47:34;;;;;;;18.87;13.80;;;;;;;;;;5045674;28;20449;-60
2021/09/27 14:50:01;;;;;;;20.67;14.60;;;;;;;;;;5050720;28;20466;-56
2021/09/27 14:52:36;;;;;;;12.07;8.47;;;;;;;;;;5052651;28;20508;-57
2021/09/27 14:55:05;;;;;;;7.90;4.10;;;;;;;;;;5046727;28;20459;-58
2021/09/27 14:57:32;;;;;;;8.73;5.27;;;;;;;;;;5064923;28;20803;-59
2021/09/27 15:00:01;;;;;;;9.50;5.97;;;;;;;;;;5047735;28;20510;-60
2021/09/27 15:02:29;;;;;;;18.97;13.73;;;;;;;;;;5040915;28;20446;-58
2021/09/27 15:05:19;;;;;;;12.67;9.73;;;;;;;;;;5034479;28;20470;-60
2021/09/27 15:07:47;;;;;;;7.67;4.93;;;;;;;;;;5047280;28;20442;-59
2021/09/27 15:10:17;;;;;;;7.20;4.27;;;;;;;;;;5055667;28;20659;-60
2021/09/27 15:12:45;;;;;;;12.73;4.93;;;;;;;;;;5053639;28;20477;-59
2021/09/27 15:15:13;;;;;;;11.40;4.13;;;;;;;;;;5048518;28;20459;-64
2021/09/27 15:17:47;;;;;;;8.23;4.13;;;;;;;;;;5045312;28;20641;-58
2021/09/27 15:20:17;;;;;;;13.13;6.90;;;;;;;;;;5050685;28;20492;-54
2021/09/27 15:22:52;;;;;;;19.93;11.60;;;;;;;;;;5054293;28;20442;-58
2021/09/27 15:25:36;;;;;;;10.33;6.30;;;;;;;;;;5052950;28;20442;-60
2021/09/27 15:28:13;;;;;;;5.67;3.77;;;;;;;;;;5042158;28;20454;-60
2021/09/27 15:30:47;;;;;;;10.40;5.70;;;;;;;;;;5054276;28;20462;-59
2021/09/27 15:33:18;;;;;;;7.03;4.10;;;;;;;;;;5057916;28;20519;-54
2021/09/27 15:36:05;;;;;;;17.83;6.30;;;;;;;;;;5035998;28;20500;-56
2021/09/27 15:38:33;;;;;;;8.20;5.20;;;;;;;;;;5063241;28;20495;-59
2021/09/27 15:41:19;;;;;;;12.43;4.90;;;;;;;;;;5074310;28;20461;-58
2021/09/27 15:44:05;;;;;;;17.73;15.17;;;;;;;;;;5068927;28;20457;-59
2021/09/27 15:46:33;;;;;;;9.50;6.43;;;;;;;;;;5074890;28;20514;-59
2021/09/27 15:49:01;;;;;;;11.33;8.03;;;;;;;;;;5075553;28;20464;-60
2021/09/27 15:51:45;;;;;;;26.73;15.30;;;;;;;;;;5076759;28;20453;-57
2021/09/27 15:54:19;;;;;;;13.87;8.50;;;;;;;;;;5068437;28;20488;-61
2021/09/27 15:56:52;;;;;;;25.67;14.77;;;;;;;;;;5055486;28;20462;-56
2021/09/27 15:59:47;;;;;;;36.37;19.70;;;;;;;;;;5060425;28;20466;-62
2021/09/27 16:02:14;;;;;;;19.00;11.50;;;;;;;;;;5073920;28;20559;-60
2021/09/27 16:04:41;;;;;;;22.37;12.33;;;;;;;;;;5077608;28;20502;-58
2021/09/27 16:07:20;;;;;;;12.07;4.83;;;;;;;;;;5077966;28;20467;-52
2021/09/27 16:09:48;;;;;;;17.23;9.67;;;;;;;;;;5065426;28;20504;-58
2021/09/27 16:12:16;;;;;;;11.47;6.93;;;;;;;;;;5078953;28;20503;-57